Country
Station

 

Weather  for  Gore Bay, Ont.  -  Canada    Canada

  
1 °C (34 °F)
    
 
 

Current METAR for Gore Bay, Ont. is :

CYZE 240100Z AUTO 20010KT 9SM CLR 01/M01 A2969 RMK SLP066

 

This is a report for Gore Bay, Ont. - Canada.
 
The report was made one hour and 6 minutes ago, at 01:00 UTC .
The wind was blowing at a speed of 5.1 meters per second (11.5 miles per hour) from south/southwest (200°).
 
The temperature was 1 °C (34 °F), with a dew-point at -1 °C (30 °F).
The temperature felt like -4 °C (26 °F).
 
The atmospheric pressure was 1005 hPa (29.69 inHg).
The relative humidity was 86.5%.
 
The sky was clear.
 
The overall visibility was 14.5 kilometers (9.0 miles).
 

 
 
 
 

Country :   A   B   C   D   E   F   G   H   I   J   K   L   M   N   O   P   Q   R   S   T   U   V   W   Y   Z

 

Site Info  |  Disclaimer  |  Credits  |  Privacy
Contact us  |  Add to favorites
© 2013-2020 METARs - All rights reserved